sensor_id;sensor_type;location;lat;lon;timestamp;temperature;humidity
51579;DHT22;47998;53.242;6.386;2022-11-15T00:00:53;7.10;99.90
51579;DHT22;47998;53.242;6.386;2022-11-15T00:03:27;7.20;99.90
51579;DHT22;47998;53.242;6.386;2022-11-15T00:05:53;7.10;99.90
51579;DHT22;47998;53.242;6.386;2022-11-15T00:08:19;7.00;99.90
51579;DHT22;47998;53.242;6.386;2022-11-15T00:11:01;6.90;99.90
51579;DHT22;47998;53.242;6.386;2022-11-15T00:13:28;6.90;99.90
51579;DHT22;47998;53.242;6.386;2022-11-15T00:15:59;6.70;99.90
51579;DHT22;47998;53.242;6.386;2022-11-15T00:18:26;6.60;99.90
51579;DHT22;47998;53.242;6.386;2022-11-15T00:20:52;6.50;99.90
51579;DHT22;47998;53.242;6.386;2022-11-15T00:23:18;6.30;99.90
51579;DHT22;47998;53.242;6.386;2022-11-15T00:25:44;6.10;99.90
51579;DHT22;47998;53.242;6.386;2022-11-15T00:28:09;6.10;99.90
51579;DHT22;47998;53.242;6.386;2022-11-15T00:30:35;6.00;99.90
51579;DHT22;47998;53.242;6.386;2022-11-15T00:33:05;5.90;99.90
51579;DHT22;47998;53.242;6.386;2022-11-15T00:35:32;5.80;99.90
51579;DHT22;47998;53.242;6.386;2022-11-15T00:37:59;5.80;99.90
51579;DHT22;47998;53.242;6.386;2022-11-15T00:40:25;5.80;99.90
51579;DHT22;47998;53.242;6.386;2022-11-15T00:42:50;5.80;99.90
51579;DHT22;47998;53.242;6.386;2022-11-15T00:45:16;5.90;99.90
51579;DHT22;47998;53.242;6.386;2022-11-15T00:47:44;6.00;99.90
51579;DHT22;47998;53.242;6.386;2022-11-15T00:50:12;6.10;99.90
51579;DHT22;47998;53.242;6.386;2022-11-15T00:52:37;6.20;99.90
51579;DHT22;47998;53.242;6.386;2022-11-15T00:55:03;6.30;99.90
51579;DHT22;47998;53.242;6.386;2022-11-15T00:57:29;6.40;99.90
51579;DHT22;47998;53.242;6.386;2022-11-15T00:59:55;6.50;99.90
51579;DHT22;47998;53.242;6.386;2022-11-15T01:02:20;6.60;99.90
51579;DHT22;47998;53.242;6.386;2022-11-15T01:04:46;6.70;99.90
51579;DHT22;47998;53.242;6.386;2022-11-15T01:07:12;6.70;99.90
51579;DHT22;47998;53.242;6.386;2022-11-15T01:09:38;6.80;99.90
51579;DHT22;47998;53.242;6.386;2022-11-15T01:12:04;6.90;99.90
51579;DHT22;47998;53.242;6.386;2022-11-15T01:14:30;6.90;99.90
51579;DHT22;47998;53.242;6.386;2022-11-15T01:16:56;6.90;99.90
51579;DHT22;47998;53.242;6.386;2022-11-15T01:19:21;7.00;99.90
51579;DHT22;47998;53.242;6.386;2022-11-15T01:21:51;7.00;99.90
51579;DHT22;47998;53.242;6.386;2022-11-15T01:24:16;7.00;99.90
51579;DHT22;47998;53.242;6.386;2022-11-15T01:26:42;7.00;99.90
51579;DHT22;47998;53.242;6.386;2022-11-15T01:29:08;7.00;99.90
51579;DHT22;47998;53.242;6.386;2022-11-15T01:31:33;7.10;99.90
51579;DHT22;47998;53.242;6.386;2022-11-15T01:33:59;7.10;99.90
51579;DHT22;47998;53.242;6.386;2022-11-15T01:36:25;7.00;99.90
51579;DHT22;47998;53.242;6.386;2022-11-15T01:38:55;7.10;99.90
51579;DHT22;47998;53.242;6.386;2022-11-15T01:41:24;7.00;99.90
51579;DHT22;47998;53.242;6.386;2022-11-15T01:43:55;7.10;99.90
51579;DHT22;47998;53.242;6.386;2022-11-15T01:46:27;7.10;99.90
51579;DHT22;47998;53.242;6.386;2022-11-15T01:48:54;7.10;99.90
51579;DHT22;47998;53.242;6.386;2022-11-15T01:51:24;7.00;99.90
51579;DHT22;47998;53.242;6.386;2022-11-15T01:53:54;7.00;99.90
51579;DHT22;47998;53.242;6.386;2022-11-15T01:56:24;7.00;99.90
51579;DHT22;47998;53.242;6.386;2022-11-15T01:58:51;7.00;99.90
51579;DHT22;47998;53.242;6.386;2022-11-15T02:01:18;7.00;99.90
51579;DHT22;47998;53.242;6.386;2022-11-15T02:04:01;7.00;99.90
51579;DHT22;47998;53.242;6.386;2022-11-15T02:06:27;7.00;99.90
51579;DHT22;47998;53.242;6.386;2022-11-15T02:08:53;6.90;99.90
51579;DHT22;47998;53.242;6.386;2022-11-15T02:11:19;6.90;99.90
51579;DHT22;47998;53.242;6.386;2022-11-15T02:13:45;6.90;99.90
51579;DHT22;47998;53.242;6.386;2022-11-15T02:21:23;6.90;99.90
51579;DHT22;47998;53.242;6.386;2022-11-15T02:24:19;6.80;99.90
51579;DHT22;47998;53.242;6.386;2022-11-15T02:29:53;6.90;99.90
51579;DHT22;47998;53.242;6.386;2022-11-15T02:32:44;6.80;99.90
51579;DHT22;47998;53.242;6.386;2022-11-15T02:35:37;6.80;99.90
51579;DHT22;47998;53.242;6.386;2022-11-15T02:38:22;6.80;99.90
51579;DHT22;47998;53.242;6.386;2022-11-15T02:40:55;6.80;99.90
51579;DHT22;47998;53.242;6.386;2022-11-15T02:43:31;6.80;99.90
51579;DHT22;47998;53.242;6.386;2022-11-15T02:46:21;6.80;99.90
51579;DHT22;47998;53.242;6.386;2022-11-15T02:48:48;6.70;99.90
51579;DHT22;47998;53.242;6.386;2022-11-15T02:51:15;6.80;99.90
51579;DHT22;47998;53.242;6.386;2022-11-15T02:53:41;6.70;99.90
51579;DHT22;47998;53.242;6.386;2022-11-15T02:56:09;6.70;99.90
51579;DHT22;47998;53.242;6.386;2022-11-15T02:59:00;6.70;99.90
51579;DHT22;47998;53.242;6.386;2022-11-15T03:09:38;6.80;99.90
51579;DHT22;47998;53.242;6.386;2022-11-15T03:12:15;6.70;99.90
51579;DHT22;47998;53.242;6.386;2022-11-15T03:14:57;6.70;99.90
51579;DHT22;47998;53.242;6.386;2022-11-15T03:20:00;6.70;99.90
51579;DHT22;47998;53.242;6.386;2022-11-15T03:22:28;6.70;99.90
51579;DHT22;47998;53.242;6.386;2022-11-15T03:24:58;6.70;99.90
51579;DHT22;47998;53.242;6.386;2022-11-15T03:27:31;6.80;99.90
51579;DHT22;47998;53.242;6.386;2022-11-15T03:30:02;6.80;99.90
51579;DHT22;47998;53.242;6.386;2022-11-15T03:32:31;6.70;99.90
51579;DHT22;47998;53.242;6.386;2022-11-15T03:35:06;6.80;99.90
51579;DHT22;47998;53.242;6.386;2022-11-15T03:37:54;6.80;99.90
51579;DHT22;47998;53.242;6.386;2022-11-15T03:40:28;6.80;99.90
51579;DHT22;47998;53.242;6.386;2022-11-15T03:45:59;6.80;99.90
51579;DHT22;47998;53.242;6.386;2022-11-15T03:49:03;6.90;99.90
51579;DHT22;47998;53.242;6.386;2022-11-15T03:51:21;6.90;99.90
51579;DHT22;47998;53.242;6.386;2022-11-15T03:53:47;6.90;99.90
51579;DHT22;47998;53.242;6.386;2022-11-15T03:56:13;6.90;99.90
51579;DHT22;47998;53.242;6.386;2022-11-15T03:58:38;6.90;99.90
51579;DHT22;47998;53.242;6.386;2022-11-15T04:01:04;7.00;99.90
51579;DHT22;47998;53.242;6.386;2022-11-15T04:03:30;7.00;99.90
51579;DHT22;47998;53.242;6.386;2022-11-15T04:05:55;7.00;99.90
51579;DHT22;47998;53.242;6.386;2022-11-15T04:08:21;7.00;99.90
51579;DHT22;47998;53.242;6.386;2022-11-15T04:10:49;7.00;99.90
51579;DHT22;47998;53.242;6.386;2022-11-15T04:13:14;7.10;99.90
51579;DHT22;47998;53.242;6.386;2022-11-15T04:15:40;7.10;99.90
51579;DHT22;47998;53.242;6.386;2022-11-15T04:18:06;7.10;99.90
51579;DHT22;47998;53.242;6.386;2022-11-15T04:20:31;7.10;99.90
51579;DHT22;47998;53.242;6.386;2022-11-15T04:23:18;7.10;99.90
51579;DHT22;47998;53.242;6.386;2022-11-15T04:26:05;7.10;99.90
51579;DHT22;47998;53.242;6.386;2022-11-15T04:28:31;7.20;99.90
51579;DHT22;47998;53.242;6.386;2022-11-15T04:30:57;7.20;99.90
51579;DHT22;47998;53.242;6.386;2022-11-15T04:33:23;7.20;99.90
51579;DHT22;47998;53.242;6.386;2022-11-15T04:35:49;7.20;99.90
51579;DHT22;47998;53.242;6.386;2022-11-15T04:38:35;7.20;99.90
51579;DHT22;47998;53.242;6.386;2022-11-15T04:41:01;7.30;99.90
51579;DHT22;47998;53.242;6.386;2022-11-15T04:43:28;7.30;99.90
51579;DHT22;47998;53.242;6.386;2022-11-15T04:45:53;7.30;99.90
51579;DHT22;47998;53.242;6.386;2022-11-15T04:48:19;7.30;99.90
51579;DHT22;47998;53.242;6.386;2022-11-15T04:50:48;7.30;99.90
51579;DHT22;47998;53.242;6.386;2022-11-15T04:53:13;7.30;99.90
51579;DHT22;47998;53.242;6.386;2022-11-15T04:55:39;7.40;99.90
51579;DHT22;47998;53.242;6.386;2022-11-15T04:58:05;7.40;99.90
51579;DHT22;47998;53.242;6.386;2022-11-15T05:00:30;7.40;99.90
51579;DHT22;47998;53.242;6.386;2022-11-15T05:02:56;7.50;99.90
51579;DHT22;47998;53.242;6.386;2022-11-15T05:05:41;7.50;99.90
51579;DHT22;47998;53.242;6.386;2022-11-15T05:08:07;7.50;99.90
51579;DHT22;47998;53.242;6.386;2022-11-15T05:10:33;7.50;99.90
51579;DHT22;47998;53.242;6.386;2022-11-15T05:12:59;7.50;99.90
51579;DHT22;47998;53.242;6.386;2022-11-15T05:15:24;7.60;99.90
51579;DHT22;47998;53.242;6.386;2022-11-15T05:17:50;7.60;99.90
51579;DHT22;47998;53.242;6.386;2022-11-15T05:20:16;7.60;99.90
51579;DHT22;47998;53.242;6.386;2022-11-15T05:22:41;7.60;99.90
51579;DHT22;47998;53.242;6.386;2022-11-15T05:25:07;7.60;99.90
51579;DHT22;47998;53.242;6.386;2022-11-15T05:27:34;7.70;99.90
51579;DHT22;47998;53.242;6.386;2022-11-15T05:30:00;7.70;99.90
51579;DHT22;47998;53.242;6.386;2022-11-15T05:32:26;7.70;99.90
51579;DHT22;47998;53.242;6.386;2022-11-15T05:34:51;7.80;99.90
51579;DHT22;47998;53.242;6.386;2022-11-15T05:37:17;7.80;99.90
51579;DHT22;47998;53.242;6.386;2022-11-15T05:39:43;7.80;99.90
51579;DHT22;47998;53.242;6.386;2022-11-15T05:42:11;7.80;99.90
51579;DHT22;47998;53.242;6.386;2022-11-15T05:44:40;7.80;99.90
51579;DHT22;47998;53.242;6.386;2022-11-15T05:47:09;7.90;99.90
51579;DHT22;47998;53.242;6.386;2022-11-15T05:49:37;8.00;99.90
51579;DHT22;47998;53.242;6.386;2022-11-15T05:52:05;7.90;99.90
51579;DHT22;47998;53.242;6.386;2022-11-15T05:54:32;7.90;99.90
51579;DHT22;47998;53.242;6.386;2022-11-15T05:56:59;8.00;99.90
51579;DHT22;47998;53.242;6.386;2022-11-15T05:59:27;8.00;99.90
51579;DHT22;47998;53.242;6.386;2022-11-15T06:01:53;8.10;99.90
51579;DHT22;47998;53.242;6.386;2022-11-15T06:04:19;8.10;99.90
51579;DHT22;47998;53.242;6.386;2022-11-15T06:06:45;8.10;99.90
51579;DHT22;47998;53.242;6.386;2022-11-15T06:09:10;8.20;99.90
51579;DHT22;47998;53.242;6.386;2022-11-15T06:11:36;8.20;99.90
51579;DHT22;47998;53.242;6.386;2022-11-15T06:14:02;8.20;99.90
51579;DHT22;47998;53.242;6.386;2022-11-15T06:16:27;8.20;99.90
51579;DHT22;47998;53.242;6.386;2022-11-15T06:18:53;8.10;99.90
51579;DHT22;47998;53.242;6.386;2022-11-15T06:21:19;8.30;99.90
51579;DHT22;47998;53.242;6.386;2022-11-15T06:23:45;8.20;99.90
51579;DHT22;47998;53.242;6.386;2022-11-15T06:26:10;8.20;99.90
51579;DHT22;47998;53.242;6.386;2022-11-15T06:28:36;8.30;99.90
51579;DHT22;47998;53.242;6.386;2022-11-15T06:31:20;8.30;99.90
51579;DHT22;47998;53.242;6.386;2022-11-15T06:33:46;8.50;99.90
51579;DHT22;47998;53.242;6.386;2022-11-15T06:36:13;8.40;99.90
51579;DHT22;47998;53.242;6.386;2022-11-15T06:38:41;8.40;99.90
51579;DHT22;47998;53.242;6.386;2022-11-15T06:41:09;8.50;99.90
51579;DHT22;47998;53.242;6.386;2022-11-15T06:43:35;8.50;99.90
51579;DHT22;47998;53.242;6.386;2022-11-15T06:46:02;8.60;99.90
51579;DHT22;47998;53.242;6.386;2022-11-15T06:48:29;8.60;99.90
51579;DHT22;47998;53.242;6.386;2022-11-15T06:51:00;8.70;99.90
51579;DHT22;47998;53.242;6.386;2022-11-15T06:53:26;8.80;99.90
51579;DHT22;47998;53.242;6.386;2022-11-15T06:55:53;8.80;99.90
51579;DHT22;47998;53.242;6.386;2022-11-15T06:58:20;8.90;99.90
51579;DHT22;47998;53.242;6.386;2022-11-15T07:00:46;8.90;99.90
51579;DHT22;47998;53.242;6.386;2022-11-15T07:03:11;9.00;99.90
51579;DHT22;47998;53.242;6.386;2022-11-15T07:05:37;9.00;99.90
51579;DHT22;47998;53.242;6.386;2022-11-15T07:08:03;9.10;99.90
51579;DHT22;47998;53.242;6.386;2022-11-15T07:10:29;9.00;99.90
51579;DHT22;47998;53.242;6.386;2022-11-15T07:12:55;9.10;99.90
51579;DHT22;47998;53.242;6.386;2022-11-15T07:15:23;9.20;99.90
51579;DHT22;47998;53.242;6.386;2022-11-15T07:17:49;9.10;99.90
51579;DHT22;47998;53.242;6.386;2022-11-15T07:20:16;9.20;99.90
51579;DHT22;47998;53.242;6.386;2022-11-15T07:22:42;9.30;99.90
51579;DHT22;47998;53.242;6.386;2022-11-15T07:25:08;9.30;99.90
51579;DHT22;47998;53.242;6.386;2022-11-15T07:27:34;9.40;99.90
51579;DHT22;47998;53.242;6.386;2022-11-15T07:30:00;9.50;99.90
51579;DHT22;47998;53.242;6.386;2022-11-15T07:32:26;9.50;99.90
51579;DHT22;47998;53.242;6.386;2022-11-15T07:34:52;9.40;99.90
51579;DHT22;47998;53.242;6.386;2022-11-15T07:37:18;9.50;99.90
51579;DHT22;47998;53.242;6.386;2022-11-15T07:39:44;9.50;99.90
51579;DHT22;47998;53.242;6.386;2022-11-15T07:42:09;9.60;99.90
51579;DHT22;47998;53.242;6.386;2022-11-15T07:44:53;9.50;99.90
51579;DHT22;47998;53.242;6.386;2022-11-15T07:47:19;9.60;99.90
51579;DHT22;47998;53.242;6.386;2022-11-15T07:49:46;9.70;99.90
51579;DHT22;47998;53.242;6.386;2022-11-15T07:52:12;9.70;99.90
51579;DHT22;47998;53.242;6.386;2022-11-15T07:54:38;9.90;99.90
51579;DHT22;47998;53.242;6.386;2022-11-15T07:57:04;9.80;99.90
51579;DHT22;47998;53.242;6.386;2022-11-15T07:59:30;9.80;99.90
51579;DHT22;47998;53.242;6.386;2022-11-15T08:01:56;9.90;99.90
51579;DHT22;47998;53.242;6.386;2022-11-15T08:04:22;9.90;99.90
51579;DHT22;47998;53.242;6.386;2022-11-15T08:06:47;9.90;99.90
51579;DHT22;47998;53.242;6.386;2022-11-15T08:09:13;9.90;99.90
51579;DHT22;47998;53.242;6.386;2022-11-15T08:11:39;10.00;99.90
51579;DHT22;47998;53.242;6.386;2022-11-15T08:14:04;10.00;99.90
51579;DHT22;47998;53.242;6.386;2022-11-15T08:16:30;10.10;99.90
51579;DHT22;47998;53.242;6.386;2022-11-15T08:18:56;10.10;99.90
51579;DHT22;47998;53.242;6.386;2022-11-15T08:21:22;10.20;99.90
51579;DHT22;47998;53.242;6.386;2022-11-15T08:23:48;10.10;99.90
51579;DHT22;47998;53.242;6.386;2022-11-15T08:26:14;10.10;99.90
51579;DHT22;47998;53.242;6.386;2022-11-15T08:28:40;10.10;99.90
51579;DHT22;47998;53.242;6.386;2022-11-15T08:31:05;10.30;99.90
51579;DHT22;47998;53.242;6.386;2022-11-15T08:33:33;10.30;99.90
51579;DHT22;47998;53.242;6.386;2022-11-15T08:36:01;10.50;99.90
51579;DHT22;47998;53.242;6.386;2022-11-15T08:38:27;10.40;99.90
51579;DHT22;47998;53.242;6.386;2022-11-15T08:41:01;10.50;99.90
51579;DHT22;47998;53.242;6.386;2022-11-15T08:43:27;10.60;99.90
51579;DHT22;47998;53.242;6.386;2022-11-15T08:45:56;10.80;99.90
51579;DHT22;47998;53.242;6.386;2022-11-15T08:48:22;10.80;99.90
51579;DHT22;47998;53.242;6.386;2022-11-15T08:50:48;11.00;99.90
51579;DHT22;47998;53.242;6.386;2022-11-15T08:53:14;11.00;99.90
51579;DHT22;47998;53.242;6.386;2022-11-15T08:55:40;11.10;99.90
51579;DHT22;47998;53.242;6.386;2022-11-15T08:58:06;11.10;99.90
51579;DHT22;47998;53.242;6.386;2022-11-15T09:00:32;11.20;99.90
51579;DHT22;47998;53.242;6.386;2022-11-15T09:02:58;11.30;99.90
51579;DHT22;47998;53.242;6.386;2022-11-15T09:05:25;11.20;99.90
51579;DHT22;47998;53.242;6.386;2022-11-15T09:07:54;11.20;99.90
51579;DHT22;47998;53.242;6.386;2022-11-15T09:10:21;11.20;99.90
51579;DHT22;47998;53.242;6.386;2022-11-15T09:12:47;11.10;99.90
51579;DHT22;47998;53.242;6.386;2022-11-15T09:15:14;11.10;99.90
51579;DHT22;47998;53.242;6.386;2022-11-15T09:17:41;11.10;99.90
51579;DHT22;47998;53.242;6.386;2022-11-15T09:20:07;11.10;99.90
51579;DHT22;47998;53.242;6.386;2022-11-15T09:22:33;11.00;99.90
51579;DHT22;47998;53.242;6.386;2022-11-15T09:24:59;11.00;99.90
51579;DHT22;47998;53.242;6.386;2022-11-15T09:27:29;11.10;99.90
51579;DHT22;47998;53.242;6.386;2022-11-15T09:29:55;11.20;99.90
51579;DHT22;47998;53.242;6.386;2022-11-15T09:32:20;11.30;99.90
51579;DHT22;47998;53.242;6.386;2022-11-15T09:34:48;11.30;99.90
51579;DHT22;47998;53.242;6.386;2022-11-15T09:37:14;11.30;99.90
51579;DHT22;47998;53.242;6.386;2022-11-15T09:39:39;11.30;99.90
51579;DHT22;47998;53.242;6.386;2022-11-15T09:45:20;11.20;99.90
51579;DHT22;47998;53.242;6.386;2022-11-15T09:48:22;11.20;99.90
51579;DHT22;47998;53.242;6.386;2022-11-15T09:50:51;11.20;99.90
51579;DHT22;47998;53.242;6.386;2022-11-15T09:53:36;11.30;99.90
51579;DHT22;47998;53.242;6.386;2022-11-15T09:56:14;11.40;99.90
51579;DHT22;47998;53.242;6.386;2022-11-15T10:01:55;11.50;99.90
51579;DHT22;47998;53.242;6.386;2022-11-15T10:04:23;11.60;99.90
51579;DHT22;47998;53.242;6.386;2022-11-15T10:10:08;11.70;99.90
51579;DHT22;47998;53.242;6.386;2022-11-15T10:12:36;11.70;99.90
51579;DHT22;47998;53.242;6.386;2022-11-15T10:15:05;11.70;99.90
51579;DHT22;47998;53.242;6.386;2022-11-15T10:20:27;11.80;99.90
51579;DHT22;47998;53.242;6.386;2022-11-15T10:22:59;11.80;99.90
51579;DHT22;47998;53.242;6.386;2022-11-15T10:25:30;11.80;99.90
51579;DHT22;47998;53.242;6.386;2022-11-15T10:28:13;11.90;99.90
51579;DHT22;47998;53.242;6.386;2022-11-15T10:30:45;12.00;99.90
51579;DHT22;47998;53.242;6.386;2022-11-15T10:36:20;12.20;99.90
51579;DHT22;47998;53.242;6.386;2022-11-15T10:47:04;12.60;99.90
51579;DHT22;47998;53.242;6.386;2022-11-15T10:49:32;12.60;99.90
51579;DHT22;47998;53.242;6.386;2022-11-15T10:52:04;12.50;99.90
51579;DHT22;47998;53.242;6.386;2022-11-15T10:54:43;12.50;99.90
51579;DHT22;47998;53.242;6.386;2022-11-15T10:57:32;12.40;99.90
51579;DHT22;47998;53.242;6.386;2022-11-15T11:03:02;12.40;99.90
51579;DHT22;47998;53.242;6.386;2022-11-15T11:05:34;12.40;99.90
51579;DHT22;47998;53.242;6.386;2022-11-15T11:08:22;12.50;99.90
51579;DHT22;47998;53.242;6.386;2022-11-15T11:10:59;12.50;99.90
51579;DHT22;47998;53.242;6.386;2022-11-15T11:16:09;12.70;99.90
51579;DHT22;47998;53.242;6.386;2022-11-15T11:19:13;12.70;99.90
51579;DHT22;47998;53.242;6.386;2022-11-15T11:32:40;12.40;99.90
51579;DHT22;47998;53.242;6.386;2022-11-15T11:35:44;12.50;99.90
51579;DHT22;47998;53.242;6.386;2022-11-15T11:47:15;12.90;99.90
51579;DHT22;47998;53.242;6.386;2022-11-15T11:49:52;12.90;99.90
51579;DHT22;47998;53.242;6.386;2022-11-15T11:52:28;12.90;99.90
51579;DHT22;47998;53.242;6.386;2022-11-15T11:57:44;12.70;99.90
51579;DHT22;47998;53.242;6.386;2022-11-15T12:02:59;12.70;99.90
51579;DHT22;47998;53.242;6.386;2022-11-15T12:05:29;12.60;99.90
51579;DHT22;47998;53.242;6.386;2022-11-15T12:10:59;12.50;99.90
51579;DHT22;47998;53.242;6.386;2022-11-15T12:13:28;12.50;99.90
51579;DHT22;47998;53.242;6.386;2022-11-15T12:16:11;12.60;99.90
51579;DHT22;47998;53.242;6.386;2022-11-15T12:18:38;12.90;99.90
51579;DHT22;47998;53.242;6.386;2022-11-15T12:24:24;13.60;99.90
51579;DHT22;47998;53.242;6.386;2022-11-15T12:29:45;13.60;99.90
51579;DHT22;47998;53.242;6.386;2022-11-15T12:34:52;13.20;99.90
51579;DHT22;47998;53.242;6.386;2022-11-15T12:42:40;12.90;49.70
51579;DHT22;47998;53.242;6.386;2022-11-15T12:45:43;12.90;99.90
51579;DHT22;47998;53.242;6.386;2022-11-15T12:58:47;13.30;1.00
51579;DHT22;47998;53.242;6.386;2022-11-15T13:07:04;13.50;99.90
51579;DHT22;47998;53.242;6.386;2022-11-15T13:14:53;14.50;99.90
51579;DHT22;47998;53.242;6.386;2022-11-15T13:20:00;14.60;99.90
51579;DHT22;47998;53.242;6.386;2022-11-15T13:22:27;14.10;57.60
51579;DHT22;47998;53.242;6.386;2022-11-15T13:27:52;13.40;99.90
51579;DHT22;47998;53.242;6.386;2022-11-15T13:30:30;13.30;99.90
51579;DHT22;47998;53.242;6.386;2022-11-15T13:35:41;13.30;99.90
51579;DHT22;47998;53.242;6.386;2022-11-15T13:38:19;13.20;99.90
51579;DHT22;47998;53.242;6.386;2022-11-15T13:40:45;13.10;1.00
51579;DHT22;47998;53.242;6.386;2022-11-15T13:43:32;13.00;1.00
51579;DHT22;47998;53.242;6.386;2022-11-15T13:48:31;12.80;99.90
51579;DHT22;47998;53.242;6.386;2022-11-15T13:51:00;12.70;99.90
51579;DHT22;47998;53.242;6.386;2022-11-15T13:53:27;12.70;1.00
51579;DHT22;47998;53.242;6.386;2022-11-15T13:55:55;12.60;1.00
51579;DHT22;47998;53.242;6.386;2022-11-15T13:58:22;12.60;1.00
51579;DHT22;47998;53.242;6.386;2022-11-15T14:00:48;12.60;74.30
51579;DHT22;47998;53.242;6.386;2022-11-15T14:03:46;12.70;99.90
51579;DHT22;47998;53.242;6.386;2022-11-15T14:06:16;12.70;55.30
51579;DHT22;47998;53.242;6.386;2022-11-15T14:11:23;12.70;78.00
51579;DHT22;47998;53.242;6.386;2022-11-15T14:19:00;12.50;99.90
51579;DHT22;47998;53.242;6.386;2022-11-15T14:21:26;12.40;98.70
51579;DHT22;47998;53.242;6.386;2022-11-15T14:23:52;12.30;99.90
51579;DHT22;47998;53.242;6.386;2022-11-15T14:26:32;12.10;99.90
51579;DHT22;47998;53.242;6.386;2022-11-15T14:29:27;12.00;99.00
51579;DHT22;47998;53.242;6.386;2022-11-15T14:31:54;11.90;54.00
51579;DHT22;47998;53.242;6.386;2022-11-15T14:34:32;11.70;99.90
51579;DHT22;47998;53.242;6.386;2022-11-15T14:36:58;11.60;99.90
51579;DHT22;47998;53.242;6.386;2022-11-15T14:39:23;11.50;99.90
51579;DHT22;47998;53.242;6.386;2022-11-15T14:41:50;11.40;99.90
51579;DHT22;47998;53.242;6.386;2022-11-15T14:44:16;11.40;99.90
51579;DHT22;47998;53.242;6.386;2022-11-15T14:46:44;11.30;99.90
51579;DHT22;47998;53.242;6.386;2022-11-15T14:49:09;11.20;99.90
51579;DHT22;47998;53.242;6.386;2022-11-15T14:51:35;11.10;99.90
51579;DHT22;47998;53.242;6.386;2022-11-15T14:54:01;11.00;99.90
51579;DHT22;47998;53.242;6.386;2022-11-15T14:56:27;10.90;99.90
51579;DHT22;47998;53.242;6.386;2022-11-15T14:58:52;10.80;99.90
51579;DHT22;47998;53.242;6.386;2022-11-15T15:01:23;10.70;99.90
51579;DHT22;47998;53.242;6.386;2022-11-15T15:03:49;10.70;99.90
51579;DHT22;47998;53.242;6.386;2022-11-15T15:06:17;10.70;99.90
51579;DHT22;47998;53.242;6.386;2022-11-15T15:08:43;10.50;99.90
51579;DHT22;47998;53.242;6.386;2022-11-15T15:11:16;10.40;99.90
51579;DHT22;47998;53.242;6.386;2022-11-15T15:13:42;10.40;99.90
51579;DHT22;47998;53.242;6.386;2022-11-15T15:16:08;10.20;99.90
51579;DHT22;47998;53.242;6.386;2022-11-15T15:18:34;10.20;99.90
51579;DHT22;47998;53.242;6.386;2022-11-15T15:21:00;10.10;99.90
51579;DHT22;47998;53.242;6.386;2022-11-15T15:23:28;10.00;99.90
51579;DHT22;47998;53.242;6.386;2022-11-15T15:25:57;10.00;99.90
51579;DHT22;47998;53.242;6.386;2022-11-15T15:28:23;9.90;99.90
51579;DHT22;47998;53.242;6.386;2022-11-15T15:30:49;9.70;99.90
51579;DHT22;47998;53.242;6.386;2022-11-15T15:33:15;9.60;99.90
51579;DHT22;47998;53.242;6.386;2022-11-15T15:35:41;9.50;99.90
51579;DHT22;47998;53.242;6.386;2022-11-15T15:38:11;9.40;99.90
51579;DHT22;47998;53.242;6.386;2022-11-15T15:40:37;9.30;99.90
51579;DHT22;47998;53.242;6.386;2022-11-15T15:43:03;9.20;99.90
51579;DHT22;47998;53.242;6.386;2022-11-15T15:45:29;9.10;99.90
51579;DHT22;47998;53.242;6.386;2022-11-15T15:47:55;9.10;99.90
51579;DHT22;47998;53.242;6.386;2022-11-15T15:50:25;9.10;99.90
51579;DHT22;47998;53.242;6.386;2022-11-15T15:52:53;9.10;99.90
51579;DHT22;47998;53.242;6.386;2022-11-15T15:55:20;9.10;99.90
51579;DHT22;47998;53.242;6.386;2022-11-15T15:57:46;9.00;99.90
51579;DHT22;47998;53.242;6.386;2022-11-15T16:00:12;9.00;99.90
51579;DHT22;47998;53.242;6.386;2022-11-15T16:02:39;9.00;99.90
51579;DHT22;47998;53.242;6.386;2022-11-15T16:05:05;8.90;99.90
51579;DHT22;47998;53.242;6.386;2022-11-15T16:07:31;8.80;99.90
51579;DHT22;47998;53.242;6.386;2022-11-15T16:09:57;8.80;99.90
51579;DHT22;47998;53.242;6.386;2022-11-15T16:12:30;8.80;99.90
51579;DHT22;47998;53.242;6.386;2022-11-15T16:14:56;8.70;99.90
51579;DHT22;47998;53.242;6.386;2022-11-15T16:17:25;8.80;99.90
51579;DHT22;47998;53.242;6.386;2022-11-15T16:19:52;8.70;99.90
51579;DHT22;47998;53.242;6.386;2022-11-15T16:22:18;8.70;99.90
51579;DHT22;47998;53.242;6.386;2022-11-15T16:24:44;8.70;99.90
51579;DHT22;47998;53.242;6.386;2022-11-15T16:27:15;8.70;99.90
51579;DHT22;47998;53.242;6.386;2022-11-15T16:29:41;8.80;99.90
51579;DHT22;47998;53.242;6.386;2022-11-15T16:32:07;8.70;99.90
51579;DHT22;47998;53.242;6.386;2022-11-15T16:34:33;8.70;99.90
51579;DHT22;47998;53.242;6.386;2022-11-15T16:37:01;8.70;99.90
51579;DHT22;47998;53.242;6.386;2022-11-15T16:39:26;8.70;99.90
51579;DHT22;47998;53.242;6.386;2022-11-15T16:41:56;8.70;99.90
51579;DHT22;47998;53.242;6.386;2022-11-15T16:44:22;8.80;99.90
51579;DHT22;47998;53.242;6.386;2022-11-15T16:46:49;8.90;99.90
51579;DHT22;47998;53.242;6.386;2022-11-15T16:49:17;8.90;99.90
51579;DHT22;47998;53.242;6.386;2022-11-15T16:51:47;9.10;99.90
51579;DHT22;47998;53.242;6.386;2022-11-15T16:54:13;9.20;99.90
51579;DHT22;47998;53.242;6.386;2022-11-15T16:56:40;9.20;99.90
51579;DHT22;47998;53.242;6.386;2022-11-15T16:59:08;9.40;99.90
51579;DHT22;47998;53.242;6.386;2022-11-15T17:01:37;9.50;99.90
51579;DHT22;47998;53.242;6.386;2022-11-15T17:04:12;9.60;99.90
51579;DHT22;47998;53.242;6.386;2022-11-15T17:06:42;9.60;99.90
51579;DHT22;47998;53.242;6.386;2022-11-15T17:09:21;9.50;99.90
51579;DHT22;47998;53.242;6.386;2022-11-15T17:11:49;9.70;99.90
51579;DHT22;47998;53.242;6.386;2022-11-15T17:14:15;9.70;99.90
51579;DHT22;47998;53.242;6.386;2022-11-15T17:16:41;9.80;99.90
51579;DHT22;47998;53.242;6.386;2022-11-15T17:19:19;9.80;99.90
51579;DHT22;47998;53.242;6.386;2022-11-15T17:21:46;9.80;99.90
51579;DHT22;47998;53.242;6.386;2022-11-15T17:24:13;9.80;99.90
51579;DHT22;47998;53.242;6.386;2022-11-15T17:26:39;9.80;99.90
51579;DHT22;47998;53.242;6.386;2022-11-15T17:29:07;9.80;99.90
51579;DHT22;47998;53.242;6.386;2022-11-15T17:31:36;9.90;99.90
51579;DHT22;47998;53.242;6.386;2022-11-15T17:34:04;9.90;99.90
51579;DHT22;47998;53.242;6.386;2022-11-15T17:36:30;9.90;99.90
51579;DHT22;47998;53.242;6.386;2022-11-15T17:38:56;9.90;99.90
51579;DHT22;47998;53.242;6.386;2022-11-15T17:41:22;10.00;99.90
51579;DHT22;47998;53.242;6.386;2022-11-15T17:43:48;10.00;99.90
51579;DHT22;47998;53.242;6.386;2022-11-15T17:46:16;10.00;99.90
51579;DHT22;47998;53.242;6.386;2022-11-15T17:48:43;10.00;99.90
51579;DHT22;47998;53.242;6.386;2022-11-15T17:51:11;10.10;99.90
51579;DHT22;47998;53.242;6.386;2022-11-15T17:53:40;10.00;99.90
51579;DHT22;47998;53.242;6.386;2022-11-15T17:56:16;10.00;99.90
51579;DHT22;47998;53.242;6.386;2022-11-15T17:58:53;10.00;99.90
51579;DHT22;47998;53.242;6.386;2022-11-15T18:01:28;10.00;99.90
51579;DHT22;47998;53.242;6.386;2022-11-15T18:03:56;10.00;99.90
51579;DHT22;47998;53.242;6.386;2022-11-15T18:06:23;10.10;99.90